createdAt,value
2018-06-13T00:00:07.474Z,67.70
2018-06-13T00:02:41.591Z,67.60
2018-06-13T00:05:15.460Z,67.60
2018-06-13T00:07:50.249Z,67.60
2018-06-13T00:10:24.320Z,67.70
2018-06-13T00:15:31.961Z,68.10
2018-06-13T00:18:06.124Z,68.00
2018-06-13T00:20:39.997Z,67.90
2018-06-13T00:23:13.977Z,67.80
2018-06-13T00:25:47.851Z,67.90
2018-06-13T00:28:22.071Z,68.10
2018-06-13T00:30:56.426Z,68.10
2018-06-13T00:33:30.717Z,68.00
2018-06-13T00:36:04.190Z,68.00
2018-06-13T00:38:38.237Z,67.90
2018-06-13T00:41:12.611Z,67.80
2018-06-13T00:43:46.778Z,67.90
2018-06-13T00:46:21.474Z,67.90
2018-06-13T00:51:28.106Z,67.60
2018-06-13T00:54:03.377Z,67.30
2018-06-13T00:56:37.148Z,67.00
2018-06-13T01:01:44.875Z,66.80
2018-06-13T01:04:18.837Z,67.10
2018-06-13T01:06:52.967Z,67.50
2018-06-13T01:09:26.769Z,67.30
2018-06-13T01:14:32.965Z,66.90
2018-06-13T01:19:39.948Z,67.60
2018-06-13T01:22:13.445Z,67.60
2018-06-13T01:24:47.792Z,67.30
2018-06-13T01:27:21.448Z,67.20
2018-06-13T01:29:56.107Z,66.90
2018-06-13T01:35:02.600Z,66.80
2018-06-13T01:37:37.439Z,66.50
2018-06-13T01:40:11.914Z,66.20
2018-06-13T01:42:46.879Z,65.80
2018-06-13T01:47:53.534Z,65.60
2018-06-13T01:50:27.538Z,65.30
2018-06-13T01:53:01.577Z,65.50
2018-06-13T01:55:36.208Z,65.10
2018-06-13T01:58:11.390Z,65.30
2018-06-13T02:03:56.647Z,65.30
2018-06-13T02:06:30.655Z,64.70
2018-06-13T02:09:04.799Z,65.00
2018-06-13T02:11:38.498Z,65.10
2018-06-13T02:14:12.218Z,65.00
2018-06-13T02:16:46.903Z,65.10
2018-06-13T02:21:55.009Z,63.80
2018-06-13T02:24:28.437Z,63.10
2018-06-13T02:27:02.683Z,62.90
2018-06-13T02:29:37.250Z,62.60
2018-06-13T02:32:12.240Z,62.30
2018-06-13T02:34:46.937Z,61.90
2018-06-13T02:37:20.952Z,61.70
2018-06-13T02:39:55.163Z,62.20
2018-06-13T02:42:30.710Z,62.10
2018-06-13T02:45:05.179Z,61.80
2018-06-13T02:47:39.113Z,61.40
2018-06-13T02:50:14.146Z,61.10
2018-06-13T02:52:48.061Z,61.10
2018-06-13T02:55:22.883Z,61.50
2018-06-13T02:57:59.080Z,61.40
2018-06-13T03:00:34.008Z,61.30
2018-06-13T03:03:08.019Z,61.40
2018-06-13T03:08:15.094Z,60.90
2018-06-13T03:10:49.002Z,60.70
2018-06-13T03:15:56.387Z,60.10
2018-06-13T03:18:29.941Z,60.00
2018-06-13T03:21:05.259Z,59.80
2018-06-13T03:23:39.218Z,59.60
2018-06-13T03:26:14.328Z,59.50
2018-06-13T03:28:48.060Z,59.70
2018-06-13T03:31:22.838Z,59.30
2018-06-13T03:33:57.079Z,58.90
2018-06-13T03:39:05.562Z,58.60
2018-06-13T03:41:39.785Z,58.10
2018-06-13T03:44:14.904Z,57.90
2018-06-13T03:46:49.598Z,57.50
2018-06-13T03:49:29.104Z,57.20
2018-06-13T03:54:48.438Z,57.00
2018-06-13T03:57:22.689Z,57.20
2018-06-13T03:59:58.349Z,56.70
2018-06-13T04:02:33.327Z,56.10
2018-06-13T04:05:07.831Z,56.60
2018-06-13T04:07:41.743Z,55.60
2018-06-13T04:10:16.256Z,54.90
2018-06-13T04:15:23.073Z,55.30
2018-06-13T04:17:58.145Z,55.10
2018-06-13T04:20:33.244Z,54.70
2018-06-13T04:23:07.366Z,54.70
2018-06-13T04:25:41.630Z,54.50
2018-06-13T04:28:15.799Z,54.20
2018-06-13T04:30:50.070Z,54.10
2018-06-13T04:33:24.976Z,53.90
2018-06-13T04:35:59.805Z,53.70
2018-06-13T04:38:34.550Z,53.30
2018-06-13T04:41:08.352Z,52.60
2018-06-13T04:43:42.493Z,52.20
2018-06-13T04:46:16.315Z,52.60
2018-06-13T04:51:23.338Z,51.90
2018-06-13T04:53:57.180Z,52.50
2018-06-13T04:56:30.906Z,51.80
2018-06-13T04:59:04.833Z,51.90
2018-06-13T05:40:41.396Z,51.50
2018-06-13T05:43:15.473Z,51.30
2018-06-13T05:45:50.048Z,53.20
2018-06-13T05:48:24.032Z,53.30
2018-06-13T05:50:58.192Z,53.30
2018-06-13T05:53:32.192Z,53.10
2018-06-13T05:56:06.770Z,52.90
2018-06-13T05:58:40.668Z,52.50
2018-06-13T06:01:14.877Z,52.20
2018-06-13T06:03:50.778Z,51.80
2018-06-13T06:06:24.809Z,51.80
2018-06-13T06:08:58.611Z,51.20
2018-06-13T06:11:33.896Z,51.30
2018-06-13T06:14:07.800Z,51.40
2018-06-13T06:16:42.759Z,51.50
2018-06-13T06:19:16.749Z,51.60
2018-06-13T06:21:50.803Z,51.30
2018-06-13T06:24:25.465Z,51.40
2018-06-13T06:26:59.410Z,51.20
2018-06-13T06:29:33.602Z,51.20
2018-06-13T06:32:07.493Z,51.20
2018-06-13T06:34:40.956Z,51.40
2018-06-13T06:37:14.867Z,51.40
2018-06-13T06:39:48.732Z,51.40
2018-06-13T06:42:22.749Z,51.10
2018-06-13T06:44:57.083Z,51.10
2018-06-13T06:47:30.928Z,51.10
2018-06-13T06:50:04.857Z,50.30
2018-06-13T06:52:39.155Z,49.70
2018-06-13T06:55:13.322Z,49.60
2018-06-13T06:57:47.283Z,49.00
2018-06-13T07:00:20.985Z,49.50
2018-06-13T07:02:54.946Z,49.70
2018-06-13T07:05:30.930Z,49.70
2018-06-13T07:08:05.474Z,49.60
2018-06-13T07:10:39.531Z,49.70
2018-06-13T07:13:13.664Z,49.30
2018-06-13T07:15:48.060Z,49.70
2018-06-13T07:20:54.462Z,49.50
2018-06-13T07:23:27.938Z,49.40
2018-06-13T07:26:01.846Z,49.70
2018-06-13T07:31:09.358Z,48.60
2018-06-13T07:33:43.428Z,48.50
2018-06-13T07:36:17.395Z,47.80
2018-06-13T07:41:24.671Z,47.20
2018-06-13T07:43:58.562Z,47.30
2018-06-13T07:46:32.573Z,47.30
2018-06-13T07:49:06.972Z,47.10
2018-06-13T07:52:10.273Z,47.30
2018-06-13T07:54:44.532Z,48.20
2018-06-13T07:57:18.159Z,48.40
2018-06-13T07:59:52.180Z,48.30
2018-06-13T08:02:26.833Z,48.40
2018-06-13T08:05:01.082Z,48.90
2018-06-13T08:07:35.739Z,48.90
2018-06-13T08:10:09.749Z,48.90
2018-06-13T08:12:45.071Z,48.00
2018-06-13T08:15:19.114Z,47.70
2018-06-13T08:17:53.486Z,47.70
2018-06-13T08:20:28.186Z,47.70
2018-06-13T08:23:03.482Z,47.80
2018-06-13T08:25:38.589Z,48.10
2018-06-13T08:30:47.452Z,47.50
2018-06-13T08:33:22.751Z,47.20
2018-06-13T08:35:59.581Z,47.30
2018-06-13T08:38:35.058Z,47.80
2018-06-13T08:41:08.853Z,47.60
2018-06-13T08:43:43.027Z,47.70
2018-06-13T08:51:24.363Z,47.70
2018-06-13T08:53:59.022Z,47.60
2018-06-13T08:56:33.602Z,47.50
2018-06-13T08:59:08.592Z,47.50
2018-06-13T09:01:42.740Z,47.50
2018-06-13T09:04:16.954Z,47.80
2018-06-13T09:06:52.261Z,47.90
2018-06-13T09:09:28.953Z,47.80
2018-06-13T09:12:03.892Z,47.50
2018-06-13T09:14:37.594Z,47.70
2018-06-13T09:17:13.280Z,47.70
2018-06-13T09:19:47.392Z,47.60
2018-06-13T09:22:22.157Z,47.80
2018-06-13T09:24:57.318Z,47.70
2018-06-13T09:27:31.065Z,47.80
2018-06-13T09:30:04.991Z,48.10
2018-06-13T09:32:38.782Z,48.20
2018-06-13T09:35:12.465Z,48.50
2018-06-13T09:37:46.742Z,48.90
2018-06-13T09:40:20.803Z,48.80
2018-06-13T09:42:55.442Z,48.90
2018-06-13T09:45:30.504Z,48.90
2018-06-13T09:48:04.562Z,48.90
2018-06-13T09:50:38.539Z,49.10
2018-06-13T09:53:12.587Z,49.70
2018-06-13T10:00:55.328Z,49.00
2018-06-13T10:03:29.582Z,49.20
2018-06-13T10:06:03.181Z,49.10
2018-06-13T10:08:37.526Z,49.20
2018-06-13T10:11:12.147Z,49.10
2018-06-13T10:13:46.728Z,49.40
2018-06-13T10:16:20.788Z,49.60
2018-06-13T10:18:54.721Z,49.50
2018-06-13T10:21:30.174Z,49.40
2018-06-13T10:24:05.065Z,49.00
2018-06-13T10:26:40.775Z,49.00
2018-06-13T10:51:36.306Z,49.00
2018-06-13T10:54:10.204Z,49.10
2018-06-13T10:56:44.972Z,51.80
2018-06-13T11:02:23.025Z,52.30
2018-06-13T11:04:57.265Z,52.30
2018-06-13T11:07:31.416Z,52.40
2018-06-13T11:10:06.693Z,52.50
2018-06-13T11:12:41.607Z,52.40
2018-06-13T11:15:15.368Z,52.60
2018-06-13T11:17:49.192Z,52.80
2018-06-13T11:20:23.366Z,53.10
2018-06-13T11:22:57.087Z,53.40
2018-06-13T11:25:32.226Z,53.50
2018-06-13T11:28:06.092Z,53.60
2018-06-13T11:30:40.022Z,53.70
2018-06-13T11:35:46.311Z,54.00
2018-06-13T11:38:20.715Z,54.20
2018-06-13T11:40:54.564Z,54.30
2018-06-13T11:43:28.894Z,54.50
2018-06-13T11:46:03.464Z,54.60
2018-06-13T11:48:37.279Z,54.80
2018-06-13T11:53:45.094Z,55.10
2018-06-13T11:56:18.851Z,55.40
2018-06-13T11:58:53.125Z,55.00
2018-06-13T12:04:03.132Z,54.90
2018-06-13T12:06:47.132Z,55.00
2018-06-13T12:09:28.654Z,55.20
2018-06-13T12:12:02.439Z,55.30
2018-06-13T12:14:36.970Z,56.00
2018-06-13T12:17:11.257Z,55.30
2018-06-13T12:19:46.061Z,54.90
2018-06-13T12:22:20.390Z,55.30
2018-06-13T12:24:54.128Z,54.30
2018-06-13T12:27:28.097Z,53.40
2018-06-13T12:30:03.479Z,53.90
2018-06-13T12:32:38.063Z,54.10
2018-06-13T12:35:12.083Z,53.90
2018-06-13T12:37:46.649Z,53.70
2018-06-13T12:40:20.570Z,53.70
2018-06-13T12:42:54.982Z,53.80
2018-06-13T12:45:29.095Z,53.90
2018-06-13T12:48:03.332Z,53.90
2018-06-13T12:50:37.298Z,53.90
2018-06-13T12:53:11.446Z,54.10
2018-06-13T12:55:46.468Z,54.30
2018-06-13T12:58:20.481Z,54.10
2018-06-13T13:00:54.451Z,54.00
2018-06-13T13:03:28.886Z,53.80
2018-06-13T13:06:03.147Z,53.80
2018-06-13T13:08:37.617Z,53.90
2018-06-13T13:11:11.535Z,54.00
2018-06-13T13:13:45.766Z,54.20
2018-06-13T13:16:20.021Z,54.50
2018-06-13T13:18:54.146Z,54.70
2018-06-13T13:51:38.541Z,54.80
2018-06-13T13:54:18.915Z,55.00
2018-06-13T13:57:00.123Z,57.50
2018-06-13T13:59:35.391Z,57.70
2018-06-13T14:02:09.821Z,57.80
2018-06-13T14:04:43.613Z,57.70
2018-06-13T14:07:17.819Z,57.50
2018-06-13T14:09:52.185Z,57.30
2018-06-13T14:12:26.145Z,57.00
2018-06-13T14:15:00.156Z,56.90
2018-06-13T14:17:35.088Z,56.70
2018-06-13T14:20:09.883Z,56.70
2018-06-13T14:22:43.692Z,56.70
2018-06-13T14:25:17.779Z,56.60
2018-06-13T14:27:51.649Z,57.30
2018-06-13T14:30:25.673Z,56.60
2018-06-13T14:32:59.794Z,56.50
2018-06-13T14:35:33.725Z,56.60
2018-06-13T14:38:08.172Z,56.70
2018-06-13T14:40:42.190Z,56.70
2018-06-13T14:43:16.012Z,56.70
2018-06-13T14:45:50.129Z,56.80
2018-06-13T14:48:23.771Z,56.80
2018-06-13T14:50:57.856Z,56.80
2018-06-13T14:53:31.710Z,56.80
2018-06-13T14:56:09.569Z,57.10
2018-06-13T14:58:43.421Z,57.30
2018-06-13T15:01:17.370Z,57.40
2018-06-13T15:03:50.936Z,57.60
2018-06-13T15:06:25.697Z,57.70
2018-06-13T15:08:59.754Z,57.80
2018-06-13T15:11:33.877Z,57.80
2018-06-13T15:14:07.653Z,57.70
2018-06-13T15:16:41.265Z,58.10
2018-06-13T15:19:15.992Z,57.60
2018-06-13T15:21:50.947Z,57.80
2018-06-13T15:24:24.733Z,57.90
2018-06-13T15:26:58.615Z,57.90
2018-06-13T15:29:32.298Z,57.90
2018-06-13T15:34:38.837Z,57.80
2018-06-13T15:37:13.020Z,57.90
2018-06-13T15:39:47.190Z,58.20
2018-06-13T15:42:21.220Z,58.30
2018-06-13T15:44:55.507Z,58.40
2018-06-13T15:47:29.089Z,58.40
2018-06-13T15:50:03.493Z,58.50
2018-06-13T15:52:37.638Z,58.30
2018-06-13T15:55:11.841Z,58.30
2018-06-13T15:57:45.548Z,58.30
2018-06-13T16:00:19.210Z,58.20
2018-06-13T16:02:53.755Z,58.10
2018-06-13T16:05:27.562Z,58.00
2018-06-13T16:08:01.918Z,58.00
2018-06-13T16:10:35.628Z,58.00
2018-06-13T16:13:10.081Z,58.20
2018-06-13T16:18:16.629Z,58.20
2018-06-13T16:20:51.600Z,58.30
2018-06-13T16:25:58.813Z,58.20
2018-06-13T16:28:32.748Z,58.10
2018-06-13T16:31:06.815Z,58.10
2018-06-13T16:33:41.528Z,58.20
2018-06-13T16:38:47.857Z,58.30
2018-06-13T16:41:22.037Z,58.30
2018-06-13T16:46:28.271Z,58.50
2018-06-13T16:49:04.112Z,58.50
2018-06-13T16:51:46.305Z,58.40
2018-06-13T16:54:25.167Z,58.30
2018-06-13T16:57:00.060Z,58.40
2018-06-13T16:59:34.258Z,58.30
2018-06-13T17:02:08.624Z,58.30
2018-06-13T17:04:42.387Z,58.30
2018-06-13T17:07:16.470Z,58.50
2018-06-13T17:09:50.164Z,58.60
2018-06-13T17:12:24.472Z,58.70
2018-06-13T17:14:59.519Z,58.60
2018-06-13T17:17:33.516Z,58.60
2018-06-13T17:20:07.744Z,58.70
2018-06-13T17:22:43.136Z,58.80
2018-06-13T17:25:17.248Z,58.90
2018-06-13T17:27:52.560Z,59.30
2018-06-13T17:30:26.356Z,59.40
2018-06-13T17:33:00.704Z,59.50
2018-06-13T17:35:35.216Z,59.50
2018-06-13T17:38:10.564Z,59.40
2018-06-13T17:40:44.403Z,59.40
2018-06-13T17:43:18.484Z,59.40
2018-06-13T17:48:24.878Z,60.30
2018-06-13T17:53:31.554Z,59.60
2018-06-13T17:58:37.797Z,59.50
2018-06-13T18:01:12.431Z,59.50
2018-06-13T18:03:46.062Z,59.60
2018-06-13T18:06:20.065Z,59.60
2018-06-13T18:11:26.665Z,59.70
2018-06-13T18:16:33.357Z,59.80
2018-06-13T18:19:06.759Z,59.80
2018-06-13T18:21:40.541Z,59.90
2018-06-13T18:24:14.720Z,59.90
2018-06-13T18:26:49.121Z,60.00
2018-06-13T18:34:29.119Z,60.00
2018-06-13T18:37:03.207Z,60.00
2018-06-13T18:42:09.787Z,60.30
2018-06-13T18:44:44.089Z,60.50
2018-06-13T18:47:18.054Z,60.80
2018-06-13T18:49:52.946Z,61.00
2018-06-13T18:52:26.896Z,61.20
2018-06-13T18:55:00.865Z,61.60
2018-06-13T19:00:08.220Z,61.70
2018-06-13T19:02:41.971Z,61.60
2018-06-13T19:05:16.271Z,61.50
2018-06-13T19:07:50.358Z,61.40
2018-06-13T19:10:24.160Z,61.40
2018-06-13T19:12:58.092Z,61.60
2018-06-13T19:48:09.268Z,61.20
2018-06-13T19:53:19.592Z,64.20
2018-06-13T19:55:57.664Z,63.50
2018-06-13T19:58:33.701Z,63.10
2018-06-13T20:01:08.207Z,62.70
2018-06-13T20:03:46.062Z,62.50
2018-06-13T20:06:21.040Z,62.20
2018-06-13T20:08:55.324Z,61.80
2018-06-13T20:11:30.368Z,61.60
2018-06-13T20:14:08.492Z,61.50
2018-06-13T20:22:55.535Z,62.00
2018-06-13T20:25:34.455Z,62.40
2018-06-13T20:28:12.362Z,61.40
2018-06-13T20:33:23.215Z,62.50
2018-06-13T20:35:57.391Z,62.50
2018-06-13T20:38:31.169Z,61.60
2018-06-13T20:41:05.852Z,62.50
2018-06-13T20:43:39.812Z,62.40
2018-06-13T20:46:14.013Z,62.10
2018-06-13T20:51:20.503Z,62.10
2018-06-13T20:53:54.682Z,62.40
2018-06-13T20:56:29.873Z,62.40
2018-06-13T20:59:04.355Z,62.60
2018-06-13T21:04:11.206Z,62.70
2018-06-13T21:06:45.227Z,62.60
2018-06-13T21:09:19.514Z,62.60
2018-06-13T21:14:26.003Z,62.70
2018-06-13T21:16:59.991Z,62.70
2018-06-13T21:19:33.733Z,62.60
2018-06-13T21:22:07.970Z,62.80
2018-06-13T21:24:42.303Z,62.90
2018-06-13T21:27:16.826Z,63.20
2018-06-13T21:29:50.916Z,63.40
2018-06-13T21:32:24.540Z,63.30
2018-06-13T21:35:00.923Z,63.50
2018-06-13T21:37:34.915Z,63.60
2018-06-13T21:40:08.983Z,63.60
2018-06-13T21:42:43.208Z,63.70
2018-06-13T21:47:49.891Z,63.90
2018-06-13T21:52:56.292Z,63.60
2018-06-13T21:55:31.284Z,63.60
2018-06-13T21:58:05.224Z,63.70
2018-06-13T22:03:11.750Z,63.00
2018-06-13T22:05:46.413Z,62.30
2018-06-13T22:08:20.208Z,62.20
2018-06-13T22:10:54.222Z,62.10
2018-06-13T22:13:28.291Z,62.00
2018-06-13T22:28:44.708Z,60.30
2018-06-13T22:31:18.747Z,60.10
2018-06-13T22:33:52.983Z,59.90
2018-06-13T22:36:27.680Z,59.60
2018-06-13T22:39:01.860Z,59.50
2018-06-13T22:41:35.923Z,59.40
2018-06-13T22:44:09.677Z,59.10
2018-06-13T22:46:43.798Z,59.10
2018-06-13T22:49:17.670Z,59.30
2018-06-13T22:54:25.793Z,59.60
2018-06-13T22:56:59.672Z,59.40
2018-06-13T22:59:36.563Z,59.40
2018-06-13T23:02:10.856Z,59.30
2018-06-13T23:04:44.918Z,59.30
2018-06-13T23:07:19.103Z,59.30
2018-06-13T23:09:53.095Z,59.40
2018-06-13T23:12:27.006Z,59.50
2018-06-13T23:15:01.063Z,59.40
2018-06-13T23:20:38.141Z,59.10
2018-06-13T23:23:12.020Z,59.00
2018-06-13T23:25:46.940Z,59.10
2018-06-13T23:30:53.310Z,59.20
2018-06-13T23:33:28.038Z,59.30
2018-06-13T23:38:35.462Z,59.20
2018-06-13T23:41:09.590Z,59.10
2018-06-13T23:43:44.073Z,59.10
2018-06-13T23:46:19.223Z,59.00
2018-06-13T23:48:53.304Z,58.90
2018-06-13T23:51:27.599Z,59.00
2018-06-13T23:54:01.678Z,59.00
2018-06-13T23:56:35.912Z,59.10
2018-06-13T23:59:12.281Z,58.90
